sensor_id;sensor_type;location;lat;lon;timestamp;temperature;humidity
48206;DHT22;33995;48.202;16.260;2023-08-08T00:01:31;14.20;99.90
48206;DHT22;33995;48.202;16.260;2023-08-08T00:04:01;14.20;99.90
48206;DHT22;33995;48.202;16.260;2023-08-08T00:06:37;14.20;99.90
48206;DHT22;33995;48.202;16.260;2023-08-08T00:09:11;14.20;99.90
48206;DHT22;33995;48.202;16.260;2023-08-08T00:11:43;14.20;99.90
48206;DHT22;33995;48.202;16.260;2023-08-08T00:14:13;14.20;99.90
48206;DHT22;33995;48.202;16.260;2023-08-08T00:16:46;14.20;99.90
48206;DHT22;33995;48.202;16.260;2023-08-08T00:19:16;14.20;99.90
48206;DHT22;33995;48.202;16.260;2023-08-08T00:21:43;14.20;99.90
48206;DHT22;33995;48.202;16.260;2023-08-08T00:24:23;14.20;99.90
48206;DHT22;33995;48.202;16.260;2023-08-08T00:26:54;14.10;99.90
48206;DHT22;33995;48.202;16.260;2023-08-08T00:29:22;14.20;99.90
48206;DHT22;33995;48.202;16.260;2023-08-08T00:31:53;14.20;99.90
48206;DHT22;33995;48.202;16.260;2023-08-08T00:34:22;14.20;99.90
48206;DHT22;33995;48.202;16.260;2023-08-08T00:37:00;14.10;99.90
48206;DHT22;33995;48.202;16.260;2023-08-08T00:39:30;14.20;99.90
48206;DHT22;33995;48.202;16.260;2023-08-08T00:41:58;14.20;99.90
48206;DHT22;33995;48.202;16.260;2023-08-08T00:44:26;14.20;99.90
48206;DHT22;33995;48.202;16.260;2023-08-08T00:46:56;14.10;99.90
48206;DHT22;33995;48.202;16.260;2023-08-08T00:49:30;14.10;99.90
48206;DHT22;33995;48.202;16.260;2023-08-08T00:52:02;14.10;99.90
48206;DHT22;33995;48.202;16.260;2023-08-08T00:54:32;14.10;99.90
48206;DHT22;33995;48.202;16.260;2023-08-08T00:57:03;14.10;99.90
48206;DHT22;33995;48.202;16.260;2023-08-08T00:59:35;14.10;99.90
48206;DHT22;33995;48.202;16.260;2023-08-08T01:02:07;14.10;99.90
48206;DHT22;33995;48.202;16.260;2023-08-08T01:04:40;14.10;99.90
48206;DHT22;33995;48.202;16.260;2023-08-08T01:07:20;14.00;99.90
48206;DHT22;33995;48.202;16.260;2023-08-08T01:10:06;14.00;99.90
48206;DHT22;33995;48.202;16.260;2023-08-08T01:12:52;14.00;99.90
48206;DHT22;33995;48.202;16.260;2023-08-08T01:15:21;14.00;99.90
48206;DHT22;33995;48.202;16.260;2023-08-08T01:17:54;13.90;99.90
48206;DHT22;33995;48.202;16.260;2023-08-08T01:20:22;14.00;99.90
48206;DHT22;33995;48.202;16.260;2023-08-08T01:23:23;13.90;99.90
48206;DHT22;33995;48.202;16.260;2023-08-08T01:25:58;14.00;99.90
48206;DHT22;33995;48.202;16.260;2023-08-08T01:28:29;14.00;99.90
48206;DHT22;33995;48.202;16.260;2023-08-08T01:31:00;14.00;99.90
48206;DHT22;33995;48.202;16.260;2023-08-08T01:33:36;14.00;99.90
48206;DHT22;33995;48.202;16.260;2023-08-08T01:36:25;14.00;99.90
48206;DHT22;33995;48.202;16.260;2023-08-08T01:39:01;14.00;99.90
48206;DHT22;33995;48.202;16.260;2023-08-08T01:41:35;14.00;99.90
48206;DHT22;33995;48.202;16.260;2023-08-08T01:44:09;14.00;99.90
48206;DHT22;33995;48.202;16.260;2023-08-08T01:46:46;13.90;99.90
48206;DHT22;33995;48.202;16.260;2023-08-08T01:49:19;14.00;99.90
48206;DHT22;33995;48.202;16.260;2023-08-08T01:51:47;14.00;99.90
48206;DHT22;33995;48.202;16.260;2023-08-08T01:54:16;14.00;99.90
48206;DHT22;33995;48.202;16.260;2023-08-08T01:56:47;14.00;99.90
48206;DHT22;33995;48.202;16.260;2023-08-08T01:59:15;14.00;99.90
48206;DHT22;33995;48.202;16.260;2023-08-08T02:01:46;14.00;99.90
48206;DHT22;33995;48.202;16.260;2023-08-08T02:04:17;14.00;99.90
48206;DHT22;33995;48.202;16.260;2023-08-08T02:06:49;14.00;99.90
48206;DHT22;33995;48.202;16.260;2023-08-08T02:09:18;14.00;99.90
48206;DHT22;33995;48.202;16.260;2023-08-08T02:11:49;14.00;99.90
48206;DHT22;33995;48.202;16.260;2023-08-08T02:14:22;14.00;99.90
48206;DHT22;33995;48.202;16.260;2023-08-08T02:16:51;13.90;99.90
48206;DHT22;33995;48.202;16.260;2023-08-08T02:19:23;13.80;99.90
48206;DHT22;33995;48.202;16.260;2023-08-08T02:21:54;13.90;99.90
48206;DHT22;33995;48.202;16.260;2023-08-08T02:24:28;13.80;99.90
48206;DHT22;33995;48.202;16.260;2023-08-08T02:26:59;13.80;99.90
48206;DHT22;33995;48.202;16.260;2023-08-08T02:29:31;13.80;99.90
48206;DHT22;33995;48.202;16.260;2023-08-08T02:32:02;13.80;99.90
48206;DHT22;33995;48.202;16.260;2023-08-08T02:34:33;13.70;99.90
48206;DHT22;33995;48.202;16.260;2023-08-08T02:37:06;13.70;99.90
48206;DHT22;33995;48.202;16.260;2023-08-08T02:39:34;13.70;99.90
48206;DHT22;33995;48.202;16.260;2023-08-08T02:42:05;13.70;99.90
48206;DHT22;33995;48.202;16.260;2023-08-08T02:44:41;13.70;99.90
48206;DHT22;33995;48.202;16.260;2023-08-08T02:47:09;13.70;99.90
48206;DHT22;33995;48.202;16.260;2023-08-08T02:49:40;13.70;99.90
48206;DHT22;33995;48.202;16.260;2023-08-08T02:52:16;13.70;99.90
48206;DHT22;33995;48.202;16.260;2023-08-08T02:54:48;13.70;99.90
48206;DHT22;33995;48.202;16.260;2023-08-08T02:57:19;13.70;99.90
48206;DHT22;33995;48.202;16.260;2023-08-08T02:59:47;13.70;99.90
48206;DHT22;33995;48.202;16.260;2023-08-08T03:02:18;13.70;99.90
48206;DHT22;33995;48.202;16.260;2023-08-08T03:04:52;13.70;99.90
48206;DHT22;33995;48.202;16.260;2023-08-08T03:07:25;13.60;99.90
48206;DHT22;33995;48.202;16.260;2023-08-08T03:09:54;13.60;99.90
48206;DHT22;33995;48.202;16.260;2023-08-08T03:12:27;13.50;99.90
48206;DHT22;33995;48.202;16.260;2023-08-08T03:14:57;13.50;99.90
48206;DHT22;33995;48.202;16.260;2023-08-08T03:17:29;13.40;99.90
48206;DHT22;33995;48.202;16.260;2023-08-08T03:19:57;13.30;99.90
48206;DHT22;33995;48.202;16.260;2023-08-08T03:22:27;13.30;99.90
48206;DHT22;33995;48.202;16.260;2023-08-08T03:24:58;13.30;99.90
48206;DHT22;33995;48.202;16.260;2023-08-08T03:27:28;13.20;99.90
48206;DHT22;33995;48.202;16.260;2023-08-08T03:30:01;13.10;99.90
48206;DHT22;33995;48.202;16.260;2023-08-08T03:32:41;13.00;99.90
48206;DHT22;33995;48.202;16.260;2023-08-08T03:35:14;13.00;99.90
48206;DHT22;33995;48.202;16.260;2023-08-08T03:37:48;13.00;99.90
48206;DHT22;33995;48.202;16.260;2023-08-08T03:40:20;13.00;99.90
48206;DHT22;33995;48.202;16.260;2023-08-08T03:42:50;13.00;99.90
48206;DHT22;33995;48.202;16.260;2023-08-08T03:45:24;12.90;99.90
48206;DHT22;33995;48.202;16.260;2023-08-08T03:47:56;13.00;99.90
48206;DHT22;33995;48.202;16.260;2023-08-08T03:50:31;12.90;99.90
48206;DHT22;33995;48.202;16.260;2023-08-08T03:52:59;12.90;99.90
48206;DHT22;33995;48.202;16.260;2023-08-08T03:55:29;12.90;99.90
48206;DHT22;33995;48.202;16.260;2023-08-08T03:58:02;12.80;99.90
48206;DHT22;33995;48.202;16.260;2023-08-08T04:00:32;12.80;99.90
48206;DHT22;33995;48.202;16.260;2023-08-08T04:03:04;12.90;99.90
48206;DHT22;33995;48.202;16.260;2023-08-08T04:05:33;12.80;99.90
48206;DHT22;33995;48.202;16.260;2023-08-08T04:08:05;12.90;99.90
48206;DHT22;33995;48.202;16.260;2023-08-08T04:10:38;12.80;99.90
48206;DHT22;33995;48.202;16.260;2023-08-08T04:13:11;12.90;99.90
48206;DHT22;33995;48.202;16.260;2023-08-08T04:15:42;12.90;99.90
48206;DHT22;33995;48.202;16.260;2023-08-08T04:18:13;13.00;99.90
48206;DHT22;33995;48.202;16.260;2023-08-08T04:20:47;13.00;99.90
48206;DHT22;33995;48.202;16.260;2023-08-08T04:23:18;13.10;99.90
48206;DHT22;33995;48.202;16.260;2023-08-08T04:25:48;13.20;99.90
48206;DHT22;33995;48.202;16.260;2023-08-08T04:28:20;13.20;99.90
48206;DHT22;33995;48.202;16.260;2023-08-08T04:30:49;13.30;99.90
48206;DHT22;33995;48.202;16.260;2023-08-08T04:33:18;13.40;99.90
48206;DHT22;33995;48.202;16.260;2023-08-08T04:35:48;13.40;99.90
48206;DHT22;33995;48.202;16.260;2023-08-08T04:38:23;13.50;99.90
48206;DHT22;33995;48.202;16.260;2023-08-08T04:40:54;13.50;99.90
48206;DHT22;33995;48.202;16.260;2023-08-08T04:43:24;13.60;99.90
48206;DHT22;33995;48.202;16.260;2023-08-08T04:46:00;13.70;99.90
48206;DHT22;33995;48.202;16.260;2023-08-08T04:48:30;13.80;99.90
48206;DHT22;33995;48.202;16.260;2023-08-08T04:51:01;13.80;99.90
48206;DHT22;33995;48.202;16.260;2023-08-08T04:53:35;13.80;99.90
48206;DHT22;33995;48.202;16.260;2023-08-08T04:56:06;13.90;99.90
48206;DHT22;33995;48.202;16.260;2023-08-08T04:58:36;13.90;99.90
48206;DHT22;33995;48.202;16.260;2023-08-08T05:01:06;13.90;99.90
48206;DHT22;33995;48.202;16.260;2023-08-08T05:03:41;14.00;99.90
48206;DHT22;33995;48.202;16.260;2023-08-08T05:06:14;14.10;99.90
48206;DHT22;33995;48.202;16.260;2023-08-08T05:08:45;14.10;99.90
48206;DHT22;33995;48.202;16.260;2023-08-08T05:11:18;14.20;99.90
48206;DHT22;33995;48.202;16.260;2023-08-08T05:13:48;14.30;99.90
48206;DHT22;33995;48.202;16.260;2023-08-08T05:16:23;14.40;99.90
48206;DHT22;33995;48.202;16.260;2023-08-08T05:18:53;14.50;99.90
48206;DHT22;33995;48.202;16.260;2023-08-08T05:21:25;14.60;99.90
48206;DHT22;33995;48.202;16.260;2023-08-08T05:23:56;14.70;99.90
48206;DHT22;33995;48.202;16.260;2023-08-08T05:26:28;14.80;99.90
48206;DHT22;33995;48.202;16.260;2023-08-08T05:28:56;14.90;99.90
48206;DHT22;33995;48.202;16.260;2023-08-08T05:31:28;15.00;99.90
48206;DHT22;33995;48.202;16.260;2023-08-08T05:33:59;15.20;99.90
48206;DHT22;33995;48.202;16.260;2023-08-08T05:36:30;15.20;99.90
48206;DHT22;33995;48.202;16.260;2023-08-08T05:38:59;15.30;99.90
48206;DHT22;33995;48.202;16.260;2023-08-08T05:41:29;15.30;99.90
48206;DHT22;33995;48.202;16.260;2023-08-08T05:44:06;15.40;99.90
48206;DHT22;33995;48.202;16.260;2023-08-08T05:46:38;15.40;99.90
48206;DHT22;33995;48.202;16.260;2023-08-08T05:49:08;15.40;99.90
48206;DHT22;33995;48.202;16.260;2023-08-08T05:51:41;15.40;99.90
48206;DHT22;33995;48.202;16.260;2023-08-08T05:54:11;15.50;99.90
48206;DHT22;33995;48.202;16.260;2023-08-08T05:56:42;15.60;99.90
48206;DHT22;33995;48.202;16.260;2023-08-08T05:59:13;15.60;99.90
48206;DHT22;33995;48.202;16.260;2023-08-08T06:01:42;15.70;99.90
48206;DHT22;33995;48.202;16.260;2023-08-08T06:04:16;15.80;99.90
48206;DHT22;33995;48.202;16.260;2023-08-08T06:06:47;16.00;99.90
48206;DHT22;33995;48.202;16.260;2023-08-08T06:09:20;16.10;99.90
48206;DHT22;33995;48.202;16.260;2023-08-08T06:11:51;16.20;99.90
48206;DHT22;33995;48.202;16.260;2023-08-08T06:14:22;16.30;99.90
48206;DHT22;33995;48.202;16.260;2023-08-08T06:16:55;16.40;99.90
48206;DHT22;33995;48.202;16.260;2023-08-08T06:19:27;16.40;99.90
48206;DHT22;33995;48.202;16.260;2023-08-08T06:21:59;16.50;99.90
48206;DHT22;33995;48.202;16.260;2023-08-08T06:24:30;16.60;99.90
48206;DHT22;33995;48.202;16.260;2023-08-08T06:27:02;16.70;99.90
48206;DHT22;33995;48.202;16.260;2023-08-08T06:29:30;16.90;99.90
48206;DHT22;33995;48.202;16.260;2023-08-08T06:32:08;16.90;99.90
48206;DHT22;33995;48.202;16.260;2023-08-08T06:34:40;16.90;99.90
48206;DHT22;33995;48.202;16.260;2023-08-08T06:37:10;16.90;99.90
48206;DHT22;33995;48.202;16.260;2023-08-08T06:39:42;16.90;99.90
48206;DHT22;33995;48.202;16.260;2023-08-08T06:42:14;16.90;99.90
48206;DHT22;33995;48.202;16.260;2023-08-08T06:44:54;16.90;99.90
48206;DHT22;33995;48.202;16.260;2023-08-08T06:47:27;16.90;99.90
48206;DHT22;33995;48.202;16.260;2023-08-08T06:49:57;16.90;99.90
48206;DHT22;33995;48.202;16.260;2023-08-08T06:52:26;16.90;99.90
48206;DHT22;33995;48.202;16.260;2023-08-08T06:55:00;16.90;99.90
48206;DHT22;33995;48.202;16.260;2023-08-08T06:57:33;16.90;99.90
48206;DHT22;33995;48.202;16.260;2023-08-08T07:00:05;17.00;99.90
48206;DHT22;33995;48.202;16.260;2023-08-08T07:02:38;17.00;99.90
48206;DHT22;33995;48.202;16.260;2023-08-08T07:05:10;17.10;99.90
48206;DHT22;33995;48.202;16.260;2023-08-08T07:07:39;17.20;99.90
48206;DHT22;33995;48.202;16.260;2023-08-08T07:10:10;17.30;99.90
48206;DHT22;33995;48.202;16.260;2023-08-08T07:12:45;17.50;99.90
48206;DHT22;33995;48.202;16.260;2023-08-08T07:15:14;17.70;99.90
48206;DHT22;33995;48.202;16.260;2023-08-08T07:17:50;17.80;99.90
48206;DHT22;33995;48.202;16.260;2023-08-08T07:20:22;17.90;99.90
48206;DHT22;33995;48.202;16.260;2023-08-08T07:22:53;17.90;99.90
48206;DHT22;33995;48.202;16.260;2023-08-08T07:25:21;17.90;99.90
48206;DHT22;33995;48.202;16.260;2023-08-08T07:27:51;18.00;99.90
48206;DHT22;33995;48.202;16.260;2023-08-08T07:30:20;18.00;99.90
48206;DHT22;33995;48.202;16.260;2023-08-08T07:32:58;18.10;99.90
48206;DHT22;33995;48.202;16.260;2023-08-08T07:35:28;18.10;99.90
48206;DHT22;33995;48.202;16.260;2023-08-08T07:38:04;18.10;99.90
48206;DHT22;33995;48.202;16.260;2023-08-08T07:40:35;18.20;99.90
48206;DHT22;33995;48.202;16.260;2023-08-08T07:43:04;18.20;99.90
48206;DHT22;33995;48.202;16.260;2023-08-08T07:45:34;18.20;99.90
48206;DHT22;33995;48.202;16.260;2023-08-08T07:48:10;18.10;99.90
48206;DHT22;33995;48.202;16.260;2023-08-08T07:50:41;18.10;99.90
48206;DHT22;33995;48.202;16.260;2023-08-08T07:53:15;18.20;99.90
48206;DHT22;33995;48.202;16.260;2023-08-08T07:55:46;18.30;99.90
48206;DHT22;33995;48.202;16.260;2023-08-08T07:58:18;18.60;99.90
48206;DHT22;33995;48.202;16.260;2023-08-08T08:00:50;18.80;99.90
48206;DHT22;33995;48.202;16.260;2023-08-08T08:03:23;18.90;99.90
48206;DHT22;33995;48.202;16.260;2023-08-08T08:05:52;18.90;99.90
48206;DHT22;33995;48.202;16.260;2023-08-08T08:08:22;18.90;99.90
48206;DHT22;33995;48.202;16.260;2023-08-08T08:10:56;18.80;99.90
48206;DHT22;33995;48.202;16.260;2023-08-08T08:13:26;18.70;99.90
48206;DHT22;33995;48.202;16.260;2023-08-08T08:15:57;18.70;99.90
48206;DHT22;33995;48.202;16.260;2023-08-08T08:18:26;18.50;99.90
48206;DHT22;33995;48.202;16.260;2023-08-08T08:21:01;18.50;99.90
48206;DHT22;33995;48.202;16.260;2023-08-08T08:23:37;18.40;99.90
48206;DHT22;33995;48.202;16.260;2023-08-08T08:26:09;18.40;99.90
48206;DHT22;33995;48.202;16.260;2023-08-08T08:28:40;18.30;99.90
48206;DHT22;33995;48.202;16.260;2023-08-08T08:31:11;18.30;99.90
48206;DHT22;33995;48.202;16.260;2023-08-08T08:33:40;18.30;99.90
48206;DHT22;33995;48.202;16.260;2023-08-08T08:36:12;18.20;99.90
48206;DHT22;33995;48.202;16.260;2023-08-08T08:38:43;18.20;99.90
48206;DHT22;33995;48.202;16.260;2023-08-08T08:41:16;18.10;99.90
48206;DHT22;33995;48.202;16.260;2023-08-08T08:43:53;18.10;99.90
48206;DHT22;33995;48.202;16.260;2023-08-08T08:46:25;18.00;99.90
48206;DHT22;33995;48.202;16.260;2023-08-08T08:48:57;18.00;99.90
48206;DHT22;33995;48.202;16.260;2023-08-08T08:51:28;18.10;99.90
48206;DHT22;33995;48.202;16.260;2023-08-08T08:54:01;18.10;99.90
48206;DHT22;33995;48.202;16.260;2023-08-08T08:56:28;18.20;99.90
48206;DHT22;33995;48.202;16.260;2023-08-08T08:58:59;18.20;99.90
48206;DHT22;33995;48.202;16.260;2023-08-08T09:01:33;18.20;99.90
48206;DHT22;33995;48.202;16.260;2023-08-08T09:04:10;18.20;99.90
48206;DHT22;33995;48.202;16.260;2023-08-08T09:06:44;18.30;99.90
48206;DHT22;33995;48.202;16.260;2023-08-08T09:09:14;18.50;99.90
48206;DHT22;33995;48.202;16.260;2023-08-08T09:11:49;18.80;99.90
48206;DHT22;33995;48.202;16.260;2023-08-08T09:14:22;19.10;99.90
48206;DHT22;33995;48.202;16.260;2023-08-08T09:16:52;19.30;99.90
48206;DHT22;33995;48.202;16.260;2023-08-08T09:19:26;19.60;99.90
48206;DHT22;33995;48.202;16.260;2023-08-08T09:21:56;19.80;99.90
48206;DHT22;33995;48.202;16.260;2023-08-08T09:24:27;20.10;99.90
48206;DHT22;33995;48.202;16.260;2023-08-08T09:26:58;20.30;99.90
48206;DHT22;33995;48.202;16.260;2023-08-08T09:29:33;20.20;99.90
48206;DHT22;33995;48.202;16.260;2023-08-08T09:32:11;20.30;99.90
48206;DHT22;33995;48.202;16.260;2023-08-08T09:34:45;20.40;99.90
48206;DHT22;33995;48.202;16.260;2023-08-08T09:37:15;20.60;99.90
48206;DHT22;33995;48.202;16.260;2023-08-08T09:39:58;20.80;99.90
48206;DHT22;33995;48.202;16.260;2023-08-08T09:42:30;20.80;99.90
48206;DHT22;33995;48.202;16.260;2023-08-08T09:45:01;20.60;99.90
48206;DHT22;33995;48.202;16.260;2023-08-08T09:47:32;20.60;99.90
48206;DHT22;33995;48.202;16.260;2023-08-08T09:50:03;20.70;99.90
48206;DHT22;33995;48.202;16.260;2023-08-08T09:52:37;20.80;99.90
48206;DHT22;33995;48.202;16.260;2023-08-08T09:55:11;20.70;99.90
48206;DHT22;33995;48.202;16.260;2023-08-08T09:57:47;20.70;99.90
48206;DHT22;33995;48.202;16.260;2023-08-08T10:00:17;20.50;99.90
48206;DHT22;33995;48.202;16.260;2023-08-08T10:02:52;20.50;99.90
48206;DHT22;33995;48.202;16.260;2023-08-08T10:05:26;20.60;99.90
48206;DHT22;33995;48.202;16.260;2023-08-08T10:07:55;20.80;99.90
48206;DHT22;33995;48.202;16.260;2023-08-08T10:10:28;21.10;99.90
48206;DHT22;33995;48.202;16.260;2023-08-08T10:12:57;21.10;99.90
48206;DHT22;33995;48.202;16.260;2023-08-08T10:15:27;21.10;99.90
48206;DHT22;33995;48.202;16.260;2023-08-08T10:18:02;21.10;99.90
48206;DHT22;33995;48.202;16.260;2023-08-08T10:20:32;21.10;99.90
48206;DHT22;33995;48.202;16.260;2023-08-08T10:23:18;21.20;99.90
48206;DHT22;33995;48.202;16.260;2023-08-08T10:25:51;21.20;99.90
48206;DHT22;33995;48.202;16.260;2023-08-08T10:28:25;21.30;99.90
48206;DHT22;33995;48.202;16.260;2023-08-08T10:31:16;21.30;99.90
48206;DHT22;33995;48.202;16.260;2023-08-08T10:33:49;21.40;99.90
48206;DHT22;33995;48.202;16.260;2023-08-08T10:36:24;21.30;99.90
48206;DHT22;33995;48.202;16.260;2023-08-08T10:39:00;21.50;99.90
48206;DHT22;33995;48.202;16.260;2023-08-08T10:41:30;21.50;99.90
48206;DHT22;33995;48.202;16.260;2023-08-08T10:43:58;21.50;99.90
48206;DHT22;33995;48.202;16.260;2023-08-08T10:46:32;21.70;99.90
48206;DHT22;33995;48.202;16.260;2023-08-08T10:49:12;21.70;99.90
48206;DHT22;33995;48.202;16.260;2023-08-08T10:51:46;21.70;99.90
48206;DHT22;33995;48.202;16.260;2023-08-08T10:54:20;21.90;99.90
48206;DHT22;33995;48.202;16.260;2023-08-08T10:56:54;21.90;99.90
48206;DHT22;33995;48.202;16.260;2023-08-08T10:59:44;21.90;99.90
48206;DHT22;33995;48.202;16.260;2023-08-08T11:02:15;22.00;99.90
48206;DHT22;33995;48.202;16.260;2023-08-08T11:04:48;22.10;99.90
48206;DHT22;33995;48.202;16.260;2023-08-08T11:07:19;22.20;99.90
48206;DHT22;33995;48.202;16.260;2023-08-08T11:09:55;22.40;99.90
48206;DHT22;33995;48.202;16.260;2023-08-08T11:12:23;22.50;99.90
48206;DHT22;33995;48.202;16.260;2023-08-08T11:14:58;22.50;99.90
48206;DHT22;33995;48.202;16.260;2023-08-08T11:17:29;22.50;99.90
48206;DHT22;33995;48.202;16.260;2023-08-08T11:20:01;22.60;99.90
48206;DHT22;33995;48.202;16.260;2023-08-08T11:22:32;22.60;99.90
48206;DHT22;33995;48.202;16.260;2023-08-08T11:25:04;22.60;99.90
48206;DHT22;33995;48.202;16.260;2023-08-08T11:27:39;22.70;99.90
48206;DHT22;33995;48.202;16.260;2023-08-08T11:30:17;22.80;99.90
48206;DHT22;33995;48.202;16.260;2023-08-08T11:32:46;22.90;99.90
48206;DHT22;33995;48.202;16.260;2023-08-08T11:35:35;23.00;99.90
48206;DHT22;33995;48.202;16.260;2023-08-08T11:38:07;23.00;99.90
48206;DHT22;33995;48.202;16.260;2023-08-08T11:40:51;23.10;99.90
48206;DHT22;33995;48.202;16.260;2023-08-08T11:43:26;23.20;99.90
48206;DHT22;33995;48.202;16.260;2023-08-08T11:46:00;23.40;99.90
48206;DHT22;33995;48.202;16.260;2023-08-08T11:48:38;23.50;99.90
48206;DHT22;33995;48.202;16.260;2023-08-08T11:51:10;23.50;99.90
48206;DHT22;33995;48.202;16.260;2023-08-08T11:53:52;23.60;99.90
48206;DHT22;33995;48.202;16.260;2023-08-08T11:56:28;23.60;99.90
48206;DHT22;33995;48.202;16.260;2023-08-08T11:58:59;23.70;99.90
48206;DHT22;33995;48.202;16.260;2023-08-08T12:01:32;23.60;99.90
48206;DHT22;33995;48.202;16.260;2023-08-08T12:04:08;23.70;99.90
48206;DHT22;33995;48.202;16.260;2023-08-08T12:06:40;23.70;99.90
48206;DHT22;33995;48.202;16.260;2023-08-08T12:09:12;23.60;99.90
48206;DHT22;33995;48.202;16.260;2023-08-08T12:11:47;23.70;99.90
48206;DHT22;33995;48.202;16.260;2023-08-08T12:14:19;23.80;99.90
48206;DHT22;33995;48.202;16.260;2023-08-08T12:16:52;23.80;99.90
48206;DHT22;33995;48.202;16.260;2023-08-08T12:19:25;23.90;99.90
48206;DHT22;33995;48.202;16.260;2023-08-08T12:21:56;23.80;99.90
48206;DHT22;33995;48.202;16.260;2023-08-08T12:24:29;23.70;99.20
48206;DHT22;33995;48.202;16.260;2023-08-08T12:27:02;23.60;98.80
48206;DHT22;33995;48.202;16.260;2023-08-08T12:29:34;23.60;99.20
48206;DHT22;33995;48.202;16.260;2023-08-08T12:32:07;23.40;99.40
48206;DHT22;33995;48.202;16.260;2023-08-08T12:34:40;23.30;99.30
48206;DHT22;33995;48.202;16.260;2023-08-08T12:37:11;23.30;98.80
48206;DHT22;33995;48.202;16.260;2023-08-08T12:39:49;23.20;98.80
48206;DHT22;33995;48.202;16.260;2023-08-08T12:42:25;23.20;98.80
48206;DHT22;33995;48.202;16.260;2023-08-08T12:44:58;23.30;99.00
48206;DHT22;33995;48.202;16.260;2023-08-08T12:47:29;23.40;99.40
48206;DHT22;33995;48.202;16.260;2023-08-08T12:50:04;23.50;98.20
48206;DHT22;33995;48.202;16.260;2023-08-08T12:52:35;23.30;97.30
48206;DHT22;33995;48.202;16.260;2023-08-08T12:55:09;23.30;98.20
48206;DHT22;33995;48.202;16.260;2023-08-08T12:57:40;23.40;98.60
48206;DHT22;33995;48.202;16.260;2023-08-08T13:00:13;23.20;98.80
48206;DHT22;33995;48.202;16.260;2023-08-08T13:02:41;23.10;98.80
48206;DHT22;33995;48.202;16.260;2023-08-08T13:05:11;23.30;99.10
48206;DHT22;33995;48.202;16.260;2023-08-08T13:07:44;23.40;98.60
48206;DHT22;33995;48.202;16.260;2023-08-08T13:10:14;23.60;98.50
48206;DHT22;33995;48.202;16.260;2023-08-08T13:12:44;23.70;98.20
48206;DHT22;33995;48.202;16.260;2023-08-08T13:15:18;23.80;98.70
48206;DHT22;33995;48.202;16.260;2023-08-08T13:17:48;23.80;98.40
48206;DHT22;33995;48.202;16.260;2023-08-08T13:20:17;23.80;98.60
48206;DHT22;33995;48.202;16.260;2023-08-08T13:22:50;23.80;97.80
48206;DHT22;33995;48.202;16.260;2023-08-08T13:25:24;23.80;98.50
48206;DHT22;33995;48.202;16.260;2023-08-08T13:27:57;23.80;98.30
48206;DHT22;33995;48.202;16.260;2023-08-08T13:30:28;23.70;97.90
48206;DHT22;33995;48.202;16.260;2023-08-08T13:32:59;23.60;98.00
48206;DHT22;33995;48.202;16.260;2023-08-08T13:35:36;23.50;97.30
48206;DHT22;33995;48.202;16.260;2023-08-08T13:38:04;23.40;97.80
48206;DHT22;33995;48.202;16.260;2023-08-08T13:40:37;23.40;97.90
48206;DHT22;33995;48.202;16.260;2023-08-08T13:43:10;23.40;97.70
48206;DHT22;33995;48.202;16.260;2023-08-08T13:45:52;23.50;97.80
48206;DHT22;33995;48.202;16.260;2023-08-08T13:48:22;23.50;97.60
48206;DHT22;33995;48.202;16.260;2023-08-08T13:50:52;23.60;97.90
48206;DHT22;33995;48.202;16.260;2023-08-08T13:53:20;23.60;97.50
48206;DHT22;33995;48.202;16.260;2023-08-08T13:55:51;23.70;97.50
48206;DHT22;33995;48.202;16.260;2023-08-08T13:58:28;23.80;97.40
48206;DHT22;33995;48.202;16.260;2023-08-08T14:00:57;23.70;96.80
48206;DHT22;33995;48.202;16.260;2023-08-08T14:03:27;23.60;97.00
48206;DHT22;33995;48.202;16.260;2023-08-08T14:06:03;23.60;97.30
48206;DHT22;33995;48.202;16.260;2023-08-08T14:08:47;23.60;97.30
48206;DHT22;33995;48.202;16.260;2023-08-08T14:11:16;23.50;97.00
48206;DHT22;33995;48.202;16.260;2023-08-08T14:13:47;23.50;97.10
48206;DHT22;33995;48.202;16.260;2023-08-08T14:16:17;23.50;97.10
48206;DHT22;33995;48.202;16.260;2023-08-08T14:18:49;23.60;97.90
48206;DHT22;33995;48.202;16.260;2023-08-08T14:21:23;23.50;97.90
48206;DHT22;33995;48.202;16.260;2023-08-08T14:23:51;23.50;96.90
48206;DHT22;33995;48.202;16.260;2023-08-08T14:26:23;23.40;97.20
48206;DHT22;33995;48.202;16.260;2023-08-08T14:28:50;23.30;97.50
48206;DHT22;33995;48.202;16.260;2023-08-08T14:31:27;23.40;97.20
48206;DHT22;33995;48.202;16.260;2023-08-08T14:34:02;23.60;96.10
48206;DHT22;33995;48.202;16.260;2023-08-08T14:36:33;23.90;95.70
48206;DHT22;33995;48.202;16.260;2023-08-08T14:39:04;23.90;95.90
48206;DHT22;33995;48.202;16.260;2023-08-08T14:41:33;23.90;96.00
48206;DHT22;33995;48.202;16.260;2023-08-08T14:44:11;24.00;95.80
48206;DHT22;33995;48.202;16.260;2023-08-08T14:46:43;23.90;95.60
48206;DHT22;33995;48.202;16.260;2023-08-08T14:49:13;23.80;95.80
48206;DHT22;33995;48.202;16.260;2023-08-08T14:51:44;23.60;96.10
48206;DHT22;33995;48.202;16.260;2023-08-08T14:54:14;23.50;96.60
48206;DHT22;33995;48.202;16.260;2023-08-08T14:56:44;23.30;96.40
48206;DHT22;33995;48.202;16.260;2023-08-08T14:59:14;23.10;97.00
48206;DHT22;33995;48.202;16.260;2023-08-08T15:01:42;22.90;96.60
48206;DHT22;33995;48.202;16.260;2023-08-08T15:04:16;22.80;96.80
48206;DHT22;33995;48.202;16.260;2023-08-08T15:06:48;22.70;97.50
48206;DHT22;33995;48.202;16.260;2023-08-08T15:09:18;22.70;97.80
48206;DHT22;33995;48.202;16.260;2023-08-08T15:11:52;22.70;97.90
48206;DHT22;33995;48.202;16.260;2023-08-08T15:14:21;22.60;98.40
48206;DHT22;33995;48.202;16.260;2023-08-08T15:16:59;22.60;98.70
48206;DHT22;33995;48.202;16.260;2023-08-08T15:19:29;22.60;98.70
48206;DHT22;33995;48.202;16.260;2023-08-08T15:22:02;22.60;98.90
48206;DHT22;33995;48.202;16.260;2023-08-08T15:24:38;22.50;99.30
48206;DHT22;33995;48.202;16.260;2023-08-08T15:27:09;22.50;99.50
48206;DHT22;33995;48.202;16.260;2023-08-08T15:29:38;22.50;99.70
48206;DHT22;33995;48.202;16.260;2023-08-08T15:32:19;22.50;99.20
48206;DHT22;33995;48.202;16.260;2023-08-08T15:35:04;22.50;98.90
48206;DHT22;33995;48.202;16.260;2023-08-08T15:37:37;22.50;98.60
48206;DHT22;33995;48.202;16.260;2023-08-08T15:40:10;22.50;98.90
48206;DHT22;33995;48.202;16.260;2023-08-08T15:42:42;22.60;99.20
48206;DHT22;33995;48.202;16.260;2023-08-08T15:45:16;22.60;99.20
48206;DHT22;33995;48.202;16.260;2023-08-08T15:47:46;22.60;99.70